Time;durP1;ratioP1;P1;durP2;ratioP2;P2;SDS_P1;SDS_P2;PMS_P1;PMS_P2;Temp;Humidity;BMP_temperature;BMP_pressure;BME280_temperature;BME280_humidity;BME280_pressure;Samples;Min_cycle;Max_cycle;Signal;HPM_P1;HPM_P2
2023/02/03 00:00:56;;;;;;;;;;;;;;;22.12;20.87;97788.91;4960729;28;1898;-75
2023/02/03 00:03:21;;;;;;;;;;;;;;;22.60;20.53;97786.94;4976924;28;1057;-75
2023/02/03 00:05:46;;;;;;;;;;;;;;;22.15;21.10;97799.34;4977056;28;894;-76
2023/02/03 00:08:12;;;;;;;;;;;;;;;22.44;20.65;97801.28;4960742;28;1018;-75
2023/02/03 00:10:37;;;;;;;;;;;;;;;22.80;20.11;97815.03;4960402;28;1399;-76
2023/02/03 00:13:03;;;;;;;;;;;;;;;22.10;20.63;97816.88;5005228;28;1490;-75
2023/02/03 00:15:29;;;;;;;;;;;;;;;22.16;20.96;97817.94;5001038;28;1145;-75
2023/02/03 00:17:54;;;;;;;;;;;;;;;22.54;20.63;97814.28;5018124;28;953;-75
2023/02/03 00:20:19;;;;;;;;;;;;;;;21.89;21.13;97823.22;5018462;28;929;-75
2023/02/03 00:22:45;;;;;;;;;;;;;;;22.58;20.55;97809.28;5000457;28;1922;-76
2023/02/03 00:25:10;;;;;;;;;;;;;;;22.30;20.70;97808.97;5018045;28;969;-75
2023/02/03 00:27:36;;;;;;;;;;;;;;;22.38;20.42;97800.22;5017307;28;1473;-76
2023/02/03 00:30:01;;;;;;;;;;;;;;;22.79;20.09;97797.19;5000293;28;1181;-75
2023/02/03 00:32:27;;;;;;;;;;;;;;;22.60;20.20;97801.13;4960238;28;1239;-75
2023/02/03 00:34:52;;;;;;;;;;;;;;;22.29;20.47;97792.44;4976355;28;999;-75
2023/02/03 00:37:18;;;;;;;;;;;;;;;22.41;20.55;97793.66;4976262;28;950;-75
2023/02/03 00:39:44;;;;;;;;;;;;;;;22.85;19.77;97801.06;4976080;28;1553;-75
2023/02/03 00:42:10;;;;;;;;;;;;;;;22.56;20.13;97797.59;4975326;28;1898;-76
2023/02/03 00:44:35;;;;;;;;;;;;;;;22.51;20.26;97803.84;4976130;28;994;-75
2023/02/03 00:47:00;;;;;;;;;;;;;;;22.67;20.28;97800.88;4960141;28;1424;-75
2023/02/03 00:49:28;;;;;;;;;;;;;;;22.71;20.10;97801.53;4976726;28;994;-75
2023/02/03 00:51:54;;;;;;;;;;;;;;;22.43;20.36;97808.16;4975713;28;964;-75
2023/02/03 00:54:19;;;;;;;;;;;;;;;22.14;20.57;97806.28;4976346;28;988;-76
2023/02/03 00:56:45;;;;;;;;;;;;;;;22.51;20.31;97786.84;4975834;28;1440;-75
2023/02/03 00:59:10;;;;;;;;;;;;;;;22.27;20.35;97790.03;4976258;28;988;-75
2023/02/03 01:01:36;;;;;;;;;;;;;;;22.43;20.16;97785.47;4974438;28;1910;-76
2023/02/03 01:04:02;;;;;;;;;;;;;;;21.79;20.84;97799.63;4989480;28;981;-75
2023/02/03 01:06:27;;;;;;;;;;;;;;;22.15;20.52;97793.69;4999903;28;1183;-76
2023/02/03 01:08:53;;;;;;;;;;;;;;;21.88;20.85;97790.47;4998321;28;1136;-76
2023/02/03 01:11:22;;;;;;;;;;;;;;;22.00;20.62;97789.69;4982330;28;1179;-76
2023/02/03 01:13:47;;;;;;;;;;;;;;;22.04;20.58;97787.53;4998690;28;928;-75
2023/02/03 01:16:14;;;;;;;;;;;;;;;22.12;20.55;97794.56;4998069;28;1706;-75
2023/02/03 01:18:40;;;;;;;;;;;;;;;22.35;20.41;97797.06;5014424;28;1007;-76
2023/02/03 01:21:10;;;;;;;;;;;;;;;22.97;19.54;97798.66;5014572;28;1906;-75
2023/02/03 01:23:36;;;;;;;;;;;;;;;22.40;20.08;97792.88;5014649;28;1115;-75
2023/02/03 01:26:05;;;;;;;;;;;;;;;22.59;20.01;97800.34;4998124;28;990;-75
2023/02/03 01:28:30;;;;;;;;;;;;;;;22.44;20.06;97799.22;5014220;28;986;-75
2023/02/03 01:30:56;;;;;;;;;;;;;;;22.34;20.09;97812.50;5010470;28;1314;-75
2023/02/03 01:33:21;;;;;;;;;;;;;;;22.11;20.48;97810.00;4994575;28;1171;-75
2023/02/03 01:35:47;;;;;;;;;;;;;;;22.29;20.09;97798.91;4978408;28;1002;-76
2023/02/03 01:38:13;;;;;;;;;;;;;;;22.22;20.39;97816.13;4994913;28;1005;-76
2023/02/03 01:40:42;;;;;;;;;;;;;;;22.30;20.24;97805.34;4978163;28;1448;-75
2023/02/03 01:43:08;;;;;;;;;;;;;;;22.50;19.97;97796.59;4975520;28;1891;-76
2023/02/03 01:45:33;;;;;;;;;;;;;;;22.99;19.66;97793.31;4974979;28;1027;-75
2023/02/03 01:47:59;;;;;;;;;;;;;;;22.42;19.94;97790.38;4975269;28;1645;-76
2023/02/03 01:50:31;;;;;;;;;;;;;;;22.03;20.40;97798.06;4975293;28;979;-75
2023/02/03 01:52:57;;;;;;;;;;;;;;;22.12;20.17;97788.91;4958540;28;1569;-75
2023/02/03 01:55:24;;;;;;;;;;;;;;;22.52;19.65;97794.88;4974825;28;1444;-76
2023/02/03 01:57:51;;;;;;;;;;;;;;;22.03;20.55;97802.97;4975086;28;1028;-75
2023/02/03 02:00:16;;;;;;;;;;;;;;;22.38;20.11;97800.22;4974958;28;1073;-76
2023/02/03 02:02:42;;;;;;;;;;;;;;;22.10;20.12;97797.88;4974168;28;1914;-76
2023/02/03 02:05:18;;;;;;;;;;;;;;;22.77;19.50;97799.72;4988131;28;1001;-75
2023/02/03 02:07:44;;;;;;;;;;;;;;;22.78;19.45;97806.19;4978358;28;1276;-76
2023/02/03 02:10:09;;;;;;;;;;;;;;;22.18;20.29;97798.44;4976755;28;1789;-76
2023/02/03 02:12:35;;;;;;;;;;;;;;;22.15;20.06;97798.56;4939454;29;1321;-76
2023/02/03 02:15:00;;;;;;;;;;;;;;;22.54;19.63;97792.41;4939494;29;1212;-76
2023/02/03 02:17:29;;;;;;;;;;;;;;;22.77;19.47;97799.72;4955458;29;968;-75
2023/02/03 02:20:03;;;;;;;;;;;;;;;22.33;20.16;97799.56;4955659;29;1026;-75
2023/02/03 02:22:31;;;;;;;;;;;;;;;22.30;20.14;97803.31;4939642;29;1906;-76
2023/02/03 02:25:17;;;;;;;;;;;;;;;22.25;19.92;97814.44;4954907;29;1473;-76
2023/02/03 02:27:57;;;;;;;;;;;;;;;22.22;20.04;97821.00;4901793;29;1244;-75
2023/02/03 02:30:27;;;;;;;;;;;;;;;22.41;19.74;97822.00;4901540;29;1122;-76
2023/02/03 02:32:56;;;;;;;;;;;;;;;22.28;19.90;97833.38;4901515;29;1259;-75
2023/02/03 02:35:27;;;;;;;;;;;;;;;22.50;19.97;97824.97;4904999;29;1317;-75
2023/02/03 02:37:57;;;;;;;;;;;;;;;22.15;20.24;97827.69;4936049;29;1154;-75
2023/02/03 02:40:35;;;;;;;;;;;;;;;22.59;19.51;97820.19;4935305;29;1537;-76
2023/02/03 02:43:12;;;;;;;;;;;;;;;22.41;20.15;97816.34;4936263;29;1984;-75
2023/02/03 02:45:37;;;;;;;;;;;;;;;22.84;19.49;97812.84;4935545;29;1619;-76
2023/02/03 02:48:09;;;;;;;;;;;;;;;22.02;20.31;97824.00;4935882;29;1145;-75
2023/02/03 02:50:37;;;;;;;;;;;;;;;22.50;19.78;97825.75;4950351;29;1190;-76
2023/02/03 02:53:02;;;;;;;;;;;;;;;21.94;20.57;97834.00;4955310;29;1021;-75
2023/02/03 02:55:29;;;;;;;;;;;;;;;22.40;19.78;97837.44;4955115;29;1663;-75
2023/02/03 02:58:02;;;;;;;;;;;;;;;22.20;20.05;97834.84;4963099;28;1229;-75
2023/02/03 03:00:32;;;;;;;;;;;;;;;22.20;20.12;97835.63;4987221;28;1336;-75
2023/02/03 03:03:05;;;;;;;;;;;;;;;22.12;20.09;97836.28;4942261;28;1915;-75
2023/02/03 03:05:31;;;;;;;;;;;;;;;22.16;20.28;97840.59;4974656;28;969;-75
2023/02/03 03:08:01;;;;;;;;;;;;;;;22.23;19.99;97837.56;4942657;28;1503;-76
2023/02/03 03:10:27;;;;;;;;;;;;;;;22.10;20.34;97831.06;4958835;28;1129;-76
2023/02/03 03:12:54;;;;;;;;;;;;;;;22.03;20.25;97836.94;4958507;28;1481;-75
2023/02/03 03:15:26;;;;;;;;;;;;;;;22.01;20.23;97825.25;4962845;28;1519;-76
2023/02/03 03:18:12;;;;;;;;;;;;;;;22.05;20.13;97823.13;4981269;28;1248;-75
2023/02/03 03:20:39;;;;;;;;;;;;;;;22.19;20.06;97833.25;4997315;28;1023;-76
2023/02/03 03:23:09;;;;;;;;;;;;;;;22.29;19.89;97832.13;4964887;28;1918;-76
2023/02/03 03:25:45;;;;;;;;;;;;;;;22.19;20.23;97839.72;4981286;28;994;-75
2023/02/03 03:28:12;;;;;;;;;;;;;;;21.96;20.28;97828.66;4980850;28;971;-75
2023/02/03 03:30:38;;;;;;;;;;;;;;;21.70;20.77;97831.44;4980396;28;1344;-75
2023/02/03 03:33:03;;;;;;;;;;;;;;;22.02;20.22;97836.16;5000107;28;912;-75
2023/02/03 03:35:40;;;;;;;;;;;;;;;21.95;20.50;97835.56;5017990;28;953;-75
2023/02/03 03:38:10;;;;;;;;;;;;;;;22.03;20.37;97842.63;5017826;28;893;-75
2023/02/03 03:40:40;;;;;;;;;;;;;;;22.17;19.96;97850.69;5017715;28;1058;-75
2023/02/03 03:43:08;;;;;;;;;;;;;;;22.20;19.86;97852.63;5007012;28;1982;-75
2023/02/03 03:45:39;;;;;;;;;;;;;;;22.31;20.02;97857.97;5018903;28;922;-75
2023/02/03 03:48:05;;;;;;;;;;;;;;;22.03;20.05;97845.44;5001448;28;1016;-76
2023/02/03 03:50:31;;;;;;;;;;;;;;;21.60;20.51;97866.53;5018260;28;1346;-75
2023/02/03 03:52:57;;;;;;;;;;;;;;;21.90;20.24;97875.78;5017465;28;956;-76
2023/02/03 03:55:22;;;;;;;;;;;;;;;22.22;19.89;97855.78;5017931;28;904;-75
2023/02/03 03:57:53;;;;;;;;;;;;;;;22.16;19.88;97857.59;5017606;28;937;-75
2023/02/03 04:00:19;;;;;;;;;;;;;;;22.02;20.01;97856.00;5017256;28;956;-75
2023/02/03 04:02:45;;;;;;;;;;;;;;;22.08;19.80;97854.19;5018472;28;1903;-75
2023/02/03 04:05:10;;;;;;;;;;;;;;;22.26;19.99;97862.16;5016392;28;1374;-76
2023/02/03 04:07:45;;;;;;;;;;;;;;;21.93;20.13;97860.75;5017552;28;1307;-75
2023/02/03 04:10:20;;;;;;;;;;;;;;;21.61;20.62;97873.81;4977079;28;995;-75
2023/02/03 04:12:45;;;;;;;;;;;;;;;21.75;20.50;97873.38;4960919;28;990;-75
2023/02/03 04:15:10;;;;;;;;;;;;;;;22.05;20.22;97885.44;4977051;28;955;-75
2023/02/03 04:17:36;;;;;;;;;;;;;;;22.07;20.30;97911.28;4960427;28;988;-75
2023/02/03 04:20:02;;;;;;;;;;;;;;;22.27;19.83;97906.25;4975702;28;1401;-75
2023/02/03 04:22:28;;;;;;;;;;;;;;;22.18;19.87;97906.16;4976451;28;1899;-75
2023/02/03 04:24:53;;;;;;;;;;;;;;;22.30;19.81;97913.84;4976128;28;996;-76
2023/02/03 04:27:19;;;;;;;;;;;;;;;22.13;20.27;97914.41;4943968;28;946;-75
2023/02/03 04:29:46;;;;;;;;;;;;;;;22.11;20.12;97914.84;4976642;28;1064;-75
2023/02/03 04:32:11;;;;;;;;;;;;;;;21.81;20.70;97922.56;4944527;28;1064;-75
2023/02/03 04:34:37;;;;;;;;;;;;;;;21.29;21.36;97920.72;4960006;28;1330;-75
2023/02/03 04:37:02;;;;;;;;;;;;;;;21.71;20.71;97917.19;4976684;28;976;-75
2023/02/03 04:39:28;;;;;;;;;;;;;;;22.10;20.19;97916.06;4937790;29;1055;-75
2023/02/03 04:41:53;;;;;;;;;;;;;;;22.08;20.39;97912.91;4968260;28;1903;-76
2023/02/03 04:44:18;;;;;;;;;;;;;;;21.93;20.34;97912.53;4976487;28;1096;-76
2023/02/03 04:46:44;;;;;;;;;;;;;;;22.04;20.14;97909.38;4976628;28;1040;-76
2023/02/03 04:49:10;;;;;;;;;;;;;;;22.30;19.96;97919.53;4976395;28;973;-76
2023/02/03 04:51:36;;;;;;;;;;;;;;;22.11;20.24;97914.84;4975933;28;1131;-75
2023/02/03 04:54:01;;;;;;;;;;;;;;;22.36;19.81;97922.59;4975279;28;1649;-75
2023/02/03 04:56:26;;;;;;;;;;;;;;;21.91;20.25;97925.53;4976022;28;975;-75
2023/02/03 04:58:52;;;;;;;;;;;;;;;21.58;20.85;97925.66;4975855;28;1661;-76
2023/02/03 05:01:17;;;;;;;;;;;;;;;22.20;20.22;97931.97;4976261;28;1894;-75
2023/02/03 05:03:43;;;;;;;;;;;;;;;22.85;19.24;97936.44;4959807;28;1479;-75
2023/02/03 05:06:08;;;;;;;;;;;;;;;22.09;20.14;97942.81;4976176;28;953;-76
2023/02/03 05:08:34;;;;;;;;;;;;;;;21.81;20.36;97939.56;4976142;28;1023;-76
2023/02/03 05:10:59;;;;;;;;;;;;;;;21.83;20.79;97948.41;5005759;28;914;-75
2023/02/03 05:13:25;;;;;;;;;;;;;;;22.61;19.75;97958.69;5017054;28;925;-75
2023/02/03 05:15:50;;;;;;;;;;;;;;;23.06;18.97;97952.00;5017152;28;908;-76
2023/02/03 05:18:15;;;;;;;;;;;;;;;22.51;19.57;97954.13;5017046;28;919;-76
2023/02/03 05:20:41;;;;;;;;;;;;;;;21.73;20.64;97954.38;5017013;28;976;-76
2023/02/03 05:23:06;;;;;;;;;;;;;;;21.83;20.39;97959.72;5016749;28;1906;-75
2023/02/03 05:25:32;;;;;;;;;;;;;;;22.19;20.34;97964.41;4982797;28;961;-75
2023/02/03 05:27:57;;;;;;;;;;;;;;;22.22;20.02;97963.50;5017093;28;993;-76
2023/02/03 05:30:23;;;;;;;;;;;;;;;22.30;20.08;97976.22;5016822;28;1040;-76
2023/02/03 05:32:48;;;;;;;;;;;;;;;22.09;20.36;97977.59;5016405;28;905;-76
2023/02/03 05:35:14;;;;;;;;;;;;;;;22.16;20.30;97987.97;5017065;28;871;-76
2023/02/03 05:37:40;;;;;;;;;;;;;;;22.05;20.19;97981.78;5016373;28;914;-75
2023/02/03 05:42:49;;;;;;;;;;;;;;;22.47;19.75;97982.59;5016419;28;1971;-75
2023/02/03 05:45:15;;;;;;;;;;;;;;;22.60;19.57;97983.41;5016410;28;981;-76
2023/02/03 05:47:40;;;;;;;;;;;;;;;22.77;19.46;97986.94;5016831;28;909;-76
2023/02/03 05:50:06;;;;;;;;;;;;;;;22.74;19.59;97982.19;5016464;28;803;-75
2023/02/03 05:52:31;;;;;;;;;;;;;;;22.22;19.89;97991.84;4999237;28;925;-76
2023/02/03 05:54:57;;;;;;;;;;;;;;;22.61;19.53;97995.53;4999351;28;841;-76
2023/02/03 05:57:22;;;;;;;;;;;;;;;22.32;19.88;97996.38;5016222;28;951;-75
2023/02/03 05:59:48;;;;;;;;;;;;;;;22.17;19.98;97995.22;5016121;28;1067;-75
2023/02/03 06:02:14;;;;;;;;;;;;;;;22.68;19.48;97998.16;5016398;28;1906;-76
2023/02/03 06:04:40;;;;;;;;;;;;;;;22.77;19.44;97995.44;5016029;28;909;-76
2023/02/03 06:07:05;;;;;;;;;;;;;;;22.05;20.13;97981.78;5016546;28;927;-75
2023/02/03 06:09:30;;;;;;;;;;;;;;;22.60;19.87;98002.47;5016748;28;891;-75
2023/02/03 06:11:56;;;;;;;;;;;;;;;22.22;20.08;97996.69;5016527;28;847;-76
2023/02/03 06:14:21;;;;;;;;;;;;;;;22.58;19.75;98008.56;5016201;28;899;-76
2023/02/03 06:16:47;;;;;;;;;;;;;;;22.53;19.91;98011.97;4997932;28;953;-75
2023/02/03 06:19:12;;;;;;;;;;;;;;;22.20;19.93;98011.34;5016305;28;891;-76
2023/02/03 06:21:38;;;;;;;;;;;;;;;22.53;19.58;98011.19;5016169;28;1910;-76
2023/02/03 06:24:03;;;;;;;;;;;;;;;22.74;19.46;98021.88;4998750;28;880;-76
2023/02/03 06:26:28;;;;;;;;;;;;;;;22.58;19.80;98021.97;5016108;28;925;-75
2023/02/03 06:28:54;;;;;;;;;;;;;;;21.98;20.37;98021.66;5016104;28;806;-76
2023/02/03 06:31:22;;;;;;;;;;;;;;;22.55;19.69;98008.69;5014964;28;915;-76
2023/02/03 06:33:48;;;;;;;;;;;;;;;22.44;19.74;98011.84;5015814;28;775;-76
2023/02/03 06:36:13;;;;;;;;;;;;;;;22.50;19.71;98018.56;5016327;28;860;-75
2023/02/03 06:38:38;;;;;;;;;;;;;;;22.25;19.99;98021.31;5015891;28;1359;-75
2023/02/03 06:41:04;;;;;;;;;;;;;;;22.21;20.22;98023.47;5015779;28;890;-75
2023/02/03 06:43:29;;;;;;;;;;;;;;;22.55;19.77;98039.88;5015921;28;1906;-75
2023/02/03 06:45:55;;;;;;;;;;;;;;;22.30;20.01;98041.41;5016196;28;896;-75
2023/02/03 06:48:20;;;;;;;;;;;;;;;22.36;19.94;98036.78;5016308;28;918;-75
2023/02/03 06:50:46;;;;;;;;;;;;;;;22.20;20.23;98042.50;5019683;28;842;-75
2023/02/03 06:53:11;;;;;;;;;;;;;;;22.29;20.28;98039.81;5019934;28;942;-75
2023/02/03 06:55:36;;;;;;;;;;;;;;;22.47;19.97;98047.78;5019597;28;1175;-75
2023/02/03 06:58:02;;;;;;;;;;;;;;;22.26;19.96;98052.06;5019735;28;898;-75
2023/02/03 07:00:27;;;;;;;;;;;;;;;22.53;20.11;98053.72;5019699;28;941;-75
2023/02/03 07:02:53;;;;;;;;;;;;;;;22.28;20.09;98052.41;5019695;28;1977;-75
2023/02/03 07:05:19;;;;;;;;;;;;;;;22.23;20.19;98060.69;5019423;28;924;-75
2023/02/03 07:07:45;;;;;;;;;;;;;;;22.59;19.67;98051.94;4978388;28;1047;-76
2023/02/03 07:10:10;;;;;;;;;;;;;;;22.33;19.92;98049.03;4977917;28;1031;-75
2023/02/03 07:12:36;;;;;;;;;;;;;;;22.33;20.03;98049.03;4962197;28;973;-75
2023/02/03 07:15:02;;;;;;;;;;;;;;;22.32;20.12;98053.09;4978068;28;1020;-75
2023/02/03 07:17:27;;;;;;;;;;;;;;;22.42;20.24;98056.06;4978112;28;972;-75
2023/02/03 07:19:53;;;;;;;;;;;;;;;22.75;19.51;98051.84;4977708;28;1038;-76
2023/02/03 07:22:18;;;;;;;;;;;;;;;22.79;19.71;98058.19;4978100;28;1902;-74
2023/02/03 07:24:44;;;;;;;;;;;;;;;22.36;20.12;98059.44;4961802;28;941;-75
2023/02/03 07:27:09;;;;;;;;;;;;;;;22.01;20.35;98054.75;4977789;28;1023;-75
2023/02/03 07:29:34;;;;;;;;;;;;;;;21.89;20.80;98055.50;4978005;28;993;-75
2023/02/03 07:32:01;;;;;;;;;;;;;;;22.54;19.95;98053.28;4977665;28;944;-76
2023/02/03 07:34:27;;;;;;;;;;;;;;;22.28;20.02;98052.41;4977867;28;1080;-75
2023/02/03 07:36:52;;;;;;;;;;;;;;;22.52;20.21;98050.06;4977469;28;1131;-76
2023/02/03 07:39:17;;;;;;;;;;;;;;;22.22;20.23;98054.19;5008050;28;1045;-75
2023/02/03 07:41:43;;;;;;;;;;;;;;;22.57;19.71;98054.41;5018959;28;1907;-76
2023/02/03 07:44:08;;;;;;;;;;;;;;;22.30;20.23;98054.78;5018571;28;1090;-75
2023/02/03 07:46:34;;;;;;;;;;;;;;;22.48;20.23;98052.22;5019137;28;933;-75
2023/02/03 07:48:59;;;;;;;;;;;;;;;22.75;19.80;98053.88;5018458;28;918;-76
2023/02/03 07:51:25;;;;;;;;;;;;;;;22.32;20.33;98064.41;5018762;28;950;-75
2023/02/03 07:53:50;;;;;;;;;;;;;;;22.32;20.23;98067.25;5018426;28;928;-75
2023/02/03 07:56:16;;;;;;;;;;;;;;;22.61;19.84;98069.28;5018602;28;925;-76
2023/02/03 07:58:41;;;;;;;;;;;;;;;22.53;19.92;98062.22;5018674;28;1013;-75
2023/02/03 08:01:13;;;;;;;;;;;;;;;22.56;19.79;98067.00;5017763;28;1034;-75
2023/02/03 08:03:39;;;;;;;;;;;;;;;22.44;19.99;98064.94;5018559;28;923;-75
2023/02/03 08:06:05;;;;;;;;;;;;;;;22.60;19.69;98070.53;5018623;28;956;-76
2023/02/03 08:08:30;;;;;;;;;;;;;;;22.38;20.22;98089.38;5019061;28;915;-75
2023/02/03 08:10:56;;;;;;;;;;;;;;;22.19;20.54;98091.16;5018463;28;925;-76
2023/02/03 08:13:21;;;;;;;;;;;;;;;21.78;20.58;98093.41;5000590;28;902;-75
2023/02/03 08:15:47;;;;;;;;;;;;;;;21.95;20.53;98099.03;5018148;28;923;-75
2023/02/03 08:18:12;;;;;;;;;;;;;;;21.79;20.71;98094.97;5018525;28;937;-75
2023/02/03 08:20:38;;;;;;;;;;;;;;;21.89;20.61;98103.66;5018317;28;946;-75
2023/02/03 08:23:03;;;;;;;;;;;;;;;21.87;20.72;98103.31;5000891;28;1906;-75
2023/02/03 08:25:29;;;;;;;;;;;;;;;22.02;20.61;98091.16;5018625;28;978;-76
2023/02/03 08:27:54;;;;;;;;;;;;;;;22.06;20.67;98102.38;5017753;28;878;-75
2023/02/03 08:30:19;;;;;;;;;;;;;;;22.35;20.47;98103.22;5018194;28;990;-75
2023/02/03 08:32:45;;;;;;;;;;;;;;;22.24;20.36;98097.06;5017562;28;1008;-75
2023/02/03 08:35:10;;;;;;;;;;;;;;;22.27;20.55;98101.81;5018348;28;888;-75
2023/02/03 08:37:36;;;;;;;;;;;;;;;21.87;20.74;98097.66;4999618;28;1023;-76
2023/02/03 08:40:01;;;;;;;;;;;;;;;21.75;20.90;98099.94;4996835;28;1381;-76
2023/02/03 08:42:27;;;;;;;;;;;;;;;21.77;20.87;98097.47;4996767;28;1980;-75
2023/02/03 08:44:52;;;;;;;;;;;;;;;21.97;20.75;98094.53;4998069;28;1029;-75
2023/02/03 08:47:18;;;;;;;;;;;;;;;22.21;20.29;98103.63;4998079;28;949;-75
2023/02/03 08:49:44;;;;;;;;;;;;;;;22.28;20.44;98114.78;4998765;28;958;-75
2023/02/03 08:52:10;;;;;;;;;;;;;;;22.33;20.36;98125.56;4998001;28;1025;-76
2023/02/03 08:54:35;;;;;;;;;;;;;;;22.30;20.18;98117.94;4998146;28;959;-75
2023/02/03 08:57:00;;;;;;;;;;;;;;;22.05;20.48;98123.47;4997778;28;901;-75
2023/02/03 08:59:26;;;;;;;;;;;;;;;21.83;20.74;98124.03;4996780;28;997;-75
2023/02/03 09:01:52;;;;;;;;;;;;;;;21.70;20.93;98131.63;4997924;28;1906;-76
2023/02/03 09:04:18;;;;;;;;;;;;;;;21.97;20.59;98116.41;4997890;28;855;-76
2023/02/03 09:06:49;;;;;;;;;;;;;;;22.20;20.43;98133.19;4997672;28;978;-75
2023/02/03 09:09:14;;;;;;;;;;;;;;;22.14;20.42;98129.31;4998020;28;917;-75
2023/02/03 09:11:40;;;;;;;;;;;;;;;22.20;20.66;98123.91;4997641;28;901;-75
2023/02/03 09:14:06;;;;;;;;;;;;;;;22.24;20.22;98119.75;4997629;28;909;-75
2023/02/03 09:16:31;;;;;;;;;;;;;;;21.91;20.80;98121.00;4997373;28;901;-75
2023/02/03 09:18:57;;;;;;;;;;;;;;;22.04;20.93;98113.38;4995074;28;989;-75
2023/02/03 09:21:23;;;;;;;;;;;;;;;22.02;20.69;98115.84;4994950;28;1973;-75
2023/02/03 09:23:48;;;;;;;;;;;;;;;22.10;20.66;98125.75;4946668;28;1044;-76
2023/02/03 09:26:14;;;;;;;;;;;;;;;22.16;20.67;98128.88;4995105;28;919;-75
2023/02/03 09:28:40;;;;;;;;;;;;;;;22.09;20.56;98135.50;4994922;28;1104;-75
2023/02/03 09:31:06;;;;;;;;;;;;;;;22.05;20.75;98132.75;4978809;28;1084;-75
2023/02/03 09:33:31;;;;;;;;;;;;;;;22.04;20.86;98122.66;4995163;28;982;-75
2023/02/03 09:35:57;;;;;;;;;;;;;;;22.11;20.69;98116.03;4995211;28;1067;-76
2023/02/03 09:38:24;;;;;;;;;;;;;;;21.76;20.94;98123.38;4995125;28;944;-75
2023/02/03 09:40:53;;;;;;;;;;;;;;;21.59;21.45;98125.44;4994877;28;1083;-75
2023/02/03 09:43:25;;;;;;;;;;;;;;;21.64;21.24;98122.06;4978700;28;1991;-76
2023/02/03 09:45:50;;;;;;;;;;;;;;;21.83;21.28;98120.41;4995224;28;1028;-75
2023/02/03 09:48:23;;;;;;;;;;;;;;;22.53;20.09;98127.44;4962236;28;1054;-76
2023/02/03 09:50:48;;;;;;;;;;;;;;;21.54;21.24;98123.13;4980056;28;925;-76
2023/02/03 09:53:23;;;;;;;;;;;;;;;21.70;21.36;98125.97;4992567;28;928;-75
2023/02/03 09:55:48;;;;;;;;;;;;;;;21.51;21.34;98124.81;4992551;28;952;-76
2023/02/03 09:58:15;;;;;;;;;;;;;;;21.93;20.89;98125.00;4992389;28;965;-76
2023/02/03 10:00:44;;;;;;;;;;;;;;;21.77;21.49;98131.47;4992419;28;952;-76
2023/02/03 10:03:16;;;;;;;;;;;;;;;21.30;21.95;98126.13;4992024;28;1914;-75
2023/02/03 10:05:51;;;;;;;;;;;;;;;21.95;20.77;98125.31;4977192;28;926;-76
2023/02/03 10:08:35;;;;;;;;;;;;;;;21.89;21.03;98131.97;4977568;28;864;-76
2023/02/03 10:11:19;;;;;;;;;;;;;;;21.33;21.55;98136.56;4977413;28;932;-76
2023/02/03 10:13:48;;;;;;;;;;;;;;;21.71;21.12;98144.56;4977316;28;983;-75
2023/02/03 10:16:20;;;;;;;;;;;;;;;21.74;21.37;98138.00;4976360;28;2187;-75
2023/02/03 10:18:50;;;;;;;;;;;;;;;21.49;21.29;98132.16;4975752;28;1033;-75
2023/02/03 10:21:16;;;;;;;;;;;;;;;22.25;20.44;98126.19;4977650;28;825;-75
2023/02/03 10:23:41;;;;;;;;;;;;;;;22.24;20.52;98124.63;4977906;28;1907;-77
2023/02/03 10:26:08;;;;;;;;;;;;;;;22.25;20.75;98121.31;4978874;28;980;-75
2023/02/03 10:28:38;;;;;;;;;;;;;;;22.23;20.65;98123.81;4974186;28;1153;-76
2023/02/03 10:31:07;;;;;;;;;;;;;;;21.75;21.28;98128.25;4998742;28;934;-75
2023/02/03 10:33:33;;;;;;;;;;;;;;;21.85;21.13;98127.19;4998152;28;1125;-75
2023/02/03 10:36:02;;;;;;;;;;;;;;;22.10;20.94;98120.09;4998195;28;903;-75
2023/02/03 10:38:30;;;;;;;;;;;;;;;21.68;21.39;98122.00;4998407;28;1011;-75
2023/02/03 10:40:55;;;;;;;;;;;;;;;22.20;20.76;98127.53;5016988;28;1156;-75
2023/02/03 10:46:05;;;;;;;;;;;;;;;21.85;21.32;98124.38;5017777;28;1068;-75
2023/02/03 10:48:30;;;;;;;;;;;;;;;21.72;21.44;98120.66;5017838;28;1108;-75
2023/02/03 10:50:56;;;;;;;;;;;;;;;21.98;21.06;98120.81;5017914;28;1106;-76
2023/02/03 10:53:22;;;;;;;;;;;;;;;21.67;21.37;98126.88;5017448;28;1037;-75
2023/02/03 10:55:59;;;;;;;;;;;;;;;21.59;21.53;98125.44;5017351;28;981;-75
2023/02/03 10:58:25;;;;;;;;;;;;;;;21.58;21.82;98124.63;4995761;28;902;-75
2023/02/03 11:01:04;;;;;;;;;;;;;;;22.06;21.01;98125.03;4979545;28;801;-75
2023/02/03 11:03:30;;;;;;;;;;;;;;;21.66;21.65;98130.13;4980498;28;1981;-75
2023/02/03 11:06:12;;;;;;;;;;;;;;;22.32;20.69;98126.78;4980489;28;1004;-75
2023/02/03 11:08:38;;;;;;;;;;;;;;;22.00;21.22;98121.16;4979221;28;918;-76
2023/02/03 11:11:05;;;;;;;;;;;;;;;21.72;21.22;98125.53;4980424;28;895;-75
2023/02/03 11:13:30;;;;;;;;;;;;;;;21.90;21.26;98117.38;4980510;28;963;-76
2023/02/03 11:16:00;;;;;;;;;;;;;;;22.23;20.70;98112.47;4980651;28;1061;-75
2023/02/03 11:18:26;;;;;;;;;;;;;;;22.29;21.02;98122.03;4979087;28;1000;-75
2023/02/03 11:20:51;;;;;;;;;;;;;;;22.46;20.83;98119.13;4978934;28;807;-76
2023/02/03 11:23:17;;;;;;;;;;;;;;;22.35;20.85;98114.56;4979770;28;1910;-75
2023/02/03 11:25:43;;;;;;;;;;;;;;;22.09;20.98;98118.50;4979039;28;834;-76
2023/02/03 11:28:09;;;;;;;;;;;;;;;22.04;21.21;98116.22;4979885;28;833;-75
2023/02/03 11:30:36;;;;;;;;;;;;;;;22.05;21.32;98118.59;4978815;28;999;-76
2023/02/03 11:33:02;;;;;;;;;;;;;;;22.22;21.19;98121.41;4980008;28;822;-76
2023/02/03 11:35:28;;;;;;;;;;;;;;;22.41;20.79;98119.69;4978391;28;902;-75
2023/02/03 11:37:54;;;;;;;;;;;;;;;22.15;21.17;98122.41;4978854;28;1116;-76
2023/02/03 11:40:19;;;;;;;;;;;;;;;22.22;21.30;98121.41;4977102;28;1360;-76
2023/02/03 11:42:58;;;;;;;;;;;;;;;22.69;20.69;98121.72;4979282;28;1918;-75
2023/02/03 11:45:26;;;;;;;;;;;;;;;22.26;21.15;98120.06;4979768;28;1258;-75
2023/02/03 11:47:55;;;;;;;;;;;;;;;21.65;22.00;98123.66;4977208;28;1156;-75
2023/02/03 11:50:21;;;;;;;;;;;;;;;22.46;20.85;98131.28;4978581;28;1187;-76
2023/02/03 11:52:46;;;;;;;;;;;;;;;22.22;21.17;98121.41;4979268;28;1262;-75
2023/02/03 11:55:11;;;;;;;;;;;;;;;22.13;21.37;98124.13;4979698;28;1219;-75
2023/02/03 11:58:02;;;;;;;;;;;;;;;22.36;21.05;98124.66;4978098;28;1312;-75
2023/02/03 12:00:30;;;;;;;;;;;;;;;22.44;20.78;98127.31;4982501;28;1703;-75
2023/02/03 12:03:21;;;;;;;;;;;;;;;22.75;20.61;98124.81;4986612;28;1898;-75
2023/02/03 12:06:05;;;;;;;;;;;;;;;22.69;20.56;98120.91;4929920;29;1248;-77
2023/02/03 12:08:50;;;;;;;;;;;;;;;23.16;20.08;98126.00;4930926;29;1193;-76
2023/02/03 12:11:28;;;;;;;;;;;;;;;22.14;21.31;98120.81;4929394;29;1212;-75
2023/02/03 12:14:12;;;;;;;;;;;;;;;22.35;21.05;98125.91;4929180;29;1212;-75
2023/02/03 12:16:40;;;;;;;;;;;;;;;22.70;20.54;98126.16;4937986;29;931;-76
2023/02/03 12:19:05;;;;;;;;;;;;;;;22.50;20.70;98114.97;4938578;29;1191;-75
2023/02/03 12:21:50;;;;;;;;;;;;;;;22.41;20.87;98123.31;4938748;29;1989;-75
2023/02/03 12:24:31;;;;;;;;;;;;;;;22.32;21.02;98115.44;4938644;29;1024;-75
2023/02/03 12:26:59;;;;;;;;;;;;;;;22.48;20.74;98123.09;4938030;29;1005;-75
2023/02/03 12:29:25;;;;;;;;;;;;;;;22.23;21.21;98117.34;4938382;29;1041;-75
2023/02/03 12:32:05;;;;;;;;;;;;;;;22.25;20.97;98118.50;4913611;29;1016;-75
2023/02/03 12:34:33;;;;;;;;;;;;;;;22.12;21.32;98111.16;4900598;29;1105;-75
2023/02/03 12:37:05;;;;;;;;;;;;;;;22.63;20.72;98123.50;4873253;29;1046;-75
2023/02/03 12:39:52;;;;;;;;;;;;;;;22.81;20.60;98123.00;4877058;29;1300;-75
2023/02/03 12:42:36;;;;;;;;;;;;;;;22.69;20.66;98121.72;4929903;28;1911;-75
2023/02/03 12:45:03;;;;;;;;;;;;;;;22.27;21.04;98130.16;4979050;28;963;-75
2023/02/03 12:47:29;;;;;;;;;;;;;;;22.33;21.01;98131.25;4956494;28;1028;-76
2023/02/03 12:50:04;;;;;;;;;;;;;;;22.68;20.67;98136.34;4957231;29;904;-76
2023/02/03 12:52:56;;;;;;;;;;;;;;;22.04;21.41;98121.88;4956903;28;1023;-76
2023/02/03 12:55:49;;;;;;;;;;;;;;;21.98;21.31;98129.31;4956725;28;1066;-76
2023/02/03 12:58:14;;;;;;;;;;;;;;;22.37;20.91;98125.44;4956667;28;1077;-75
2023/02/03 13:00:40;;;;;;;;;;;;;;;22.11;21.22;98121.69;4956981;29;999;-75
2023/02/03 13:03:08;;;;;;;;;;;;;;;22.30;21.07;98120.78;4956646;28;1906;-75
2023/02/03 13:05:44;;;;;;;;;;;;;;;22.30;21.12;98112.28;4957108;29;1042;-76
2023/02/03 13:08:32;;;;;;;;;;;;;;;22.14;21.52;98103.03;4956876;29;1066;-75
2023/02/03 13:11:03;;;;;;;;;;;;;;;22.05;21.59;98103.63;4940414;29;941;-76